Sioux Arrow — WAG6168 — position and weather

sailwx.info

Track history (hours):
 
Tides and Currents Weather Stations Pressure Air Temp Water Temp Dewpoint Dewpoint Depression Visibility Wind Speed Wind Dir Waves Ship Positions

Sioux Arrow

Owner: HARMON, JACK L, PORT ANGELES, WA. More information available from US FCC via Universal Licensing System and Coast Guard Vessel Documentation Center.

Last reported at 2016-Dec-07 06:33 UTC. Time now 2016-Dec-07 18:23 UTC.
Position N 48°33' W 122°34'.

Type: Port tender. MMSI: 366973370.

Date/timePositionNaut miles runAvg speedWind from/ knotsBaromVisibWave heightAir tempDewpointWater temp
2016-Dec-07 06:33N 48°33' W 122°34'2 1.7
2016-Dec-07 05:33N 48°31' W 122°35'  
2016-Dec-05 00:16N 48°31' W 122°36'1 1.5
2016-Dec-04 23:33N 48°31' W 122°35'1 1.0
2016-Dec-04 22:33N 48°31' W 122°36'0 0.0
2016-Dec-04 21:33N 48°31' W 122°36'0 0.0
2016-Dec-04 20:33N 48°31' W 122°36'0 0.0
2016-Dec-04 19:33N 48°31' W 122°36'0 0.0
2016-Dec-04 17:33N 48°31' W 122°36'2 1.7
2016-Dec-04 16:33N 48°32' W 122°34'2 0.2
2016-Dec-04 08:33N 48°31' W 122°36'2 1.7
2016-Dec-04 07:33N 48°31' W 122°34'2 1.7
2016-Dec-04 06:33N 48°31' W 122°36'0 0.0
2016-Dec-04 05:33N 48°31' W 122°36'0 0.0
2016-Dec-04 04:33N 48°31' W 122°36'0 0.0
2016-Dec-04 03:33N 48°31' W 122°36'0 0.0
2016-Dec-04 02:33N 48°31' W 122°36'0 0.0
2016-Dec-04 01:33N 48°31' W 122°36'1 1.2
2016-Dec-04 00:33N 48°31' W 122°35'1 1.2
2016-Dec-03 23:33N 48°31' W 122°36'0 0.0
2016-Dec-03 22:33N 48°31' W 122°36'1 1.0
2016-Dec-03 21:33N 48°31' W 122°35'0 0.1
2016-Dec-03 20:33N 48°31' W 122°35'1 1.0
2016-Dec-03 19:33N 48°31' W 122°36'0 0.0
2016-Dec-03 18:33N 48°31' W 122°36'0 0.0
2016-Dec-03 17:33N 48°31' W 122°36'5 5.3
2016-Dec-03 16:33N 48°35' W 122°33'5 5.3
2016-Dec-03 15:33N 48°31' W 122°37'0 0.0
2016-Dec-02 11:33N 48°31' W 122°36'0 0.1
2016-Dec-02 07:33N 48°31' W 122°36'0 0.0
2016-Dec-02 06:33N 48°31' W 122°36'0 0.0
2016-Dec-02 05:33N 48°31' W 122°36'0 0.0
2016-Dec-02 04:33N 48°31' W 122°36'0 0.0
2016-Dec-02 03:33N 48°31' W 122°36'1 0.8
2016-Dec-02 02:33N 48°31' W 122°35'1 0.8
2016-Dec-02 01:33N 48°31' W 122°36'0 0.1
2016-Dec-02 00:33N 48°31' W 122°36'0 0.0
2016-Dec-01 23:33N 48°31' W 122°36'0 0.2
2016-Dec-01 22:33N 48°31' W 122°36'2 2.1
2016-Dec-01 21:33N 48°32' W 122°34'2 2.1
2016-Dec-01 20:33N 48°31' W 122°36'0 0.0
2016-Dec-01 19:33N 48°31' W 122°36'0 0.1
2016-Dec-01 18:33N 48°31' W 122°37'0 0.1
2016-Dec-01 17:33N 48°31' W 122°36'0 0.0
2016-Dec-01 16:33N 48°31' W 122°36'0 0.0
2016-Dec-01 15:33N 48°31' W 122°37'0 0.0
2016-Dec-01 03:33N 48°31' W 122°36'3110.4
2016-Dec-01 00:32N 48°01' W 122°22'1515.2
2016-Nov-30 23:34N 47°46' W 122°25'1312.6
2016-Nov-30 22:33N 47°34' W 122°21'6 5.8
2016-Nov-30 21:34N 47°34' W 122°29'5 0.4
2016-Nov-30 08:33N 47°34' W 122°21'7 7.0
2016-Nov-30 07:33N 47°33' W 122°32'7 7.3
2016-Nov-30 06:34N 47°34' W 122°21'4 3.5
2016-Nov-30 05:33N 47°35' W 122°26'5 4.6
2016-Nov-30 04:34N 47°33' W 122°32'7 7.4
2016-Nov-30 03:33N 47°34' W 122°21'0 0.0
2016-Nov-30 02:33N 47°34' W 122°21'0 0.0
2016-Nov-30 01:33N 47°34' W 122°21'0 0.0
2016-Nov-30 00:33N 47°34' W 122°21'3 3.5
2016-Nov-29 23:33N 47°37' W 122°22'0 0.1
2016-Nov-29 22:33N 47°37' W 122°22'5 5.2
2016-Nov-29 21:34N 47°34' W 122°28'5 5.0
2016-Nov-29 20:33N 47°34' W 122°21'6 5.9
2016-Nov-29 19:34N 47°33' W 122°30'1 1.3
2016-Nov-29 18:33N 47°33' W 122°31'3 3.5
2016-Nov-29 17:33N 47°35' W 122°27'4 4.2
2016-Nov-29 16:33N 47°34' W 122°21'0 0.0
2016-Nov-29 15:33N 47°34' W 122°21'0 0.0
2016-Nov-29 14:33N 47°34' W 122°21'0 0.0
2016-Nov-29 13:33N 47°34' W 122°21'0 0.0
2016-Nov-29 12:33N 47°34' W 122°21'0 0.0
2016-Nov-29 11:33N 47°34' W 122°21'0 0.0
2016-Nov-29 10:33N 47°34' W 122°21'0 0.0
2016-Nov-29 09:33N 47°34' W 122°21'0 0.0
2016-Nov-29 08:33N 47°34' W 122°21'0 0.0
2016-Nov-29 07:33N 47°34' W 122°21'0 0.0
2016-Nov-29 06:33N 47°34' W 122°21'0 0.0
2016-Nov-29 05:33N 47°34' W 122°21'0 0.0
2016-Nov-29 04:33N 47°34' W 122°21'0 0.0
2016-Nov-29 03:33N 47°34' W 122°21'0 0.0
2016-Nov-29 02:34N 47°34' W 122°21'0 0.0
2016-Nov-29 01:33N 47°34' W 122°21'0 0.0
2016-Nov-29 00:33N 47°34' W 122°21'4 4.0
2016-Nov-28 23:33N 47°38' W 122°24'9 9.3
2016-Nov-28 22:34N 47°47' W 122°27'4514.8
2016-Nov-28 19:33N 48°30' W 122°43'3 3.0
2016-Nov-28 18:33N 48°33' W 122°41'4 3.5
2016-Nov-28 17:33N 48°31' W 122°36'0 0.0
2016-Nov-28 02:33N 48°31' W 122°36'1 0.2
2016-Nov-27 20:33N 48°31' W 122°34'1 0.4
2016-Nov-27 17:12N 48°31' W 122°36'4 6.0
2016-Nov-27 16:33N 48°34' W 122°34'  
Track history (hours):
 
Tides and Currents Weather Stations Pressure Air Temp Water Temp Dewpoint Dewpoint Depression Visibility Wind Speed Wind Dir Waves Ship Positions

Sioux Arrow

Owner: HARMON, JACK L, PORT ANGELES, WA. More information available from US FCC via Universal Licensing System and Coast Guard Vessel Documentation Center.

Last reported at 2016-Dec-07 06:33 UTC. Time now 2016-Dec-07 18:23 UTC.
Position N 48°33' W 122°34'.

Type: Port tender. MMSI: 366973370.

Date/timePositionNaut miles runAvg speedWind from/ knotsBaromVisibWave heightAir tempDewpointWater temp
2016-Dec-07 06:33N 48°33' W 122°34'2 1.7
2016-Dec-07 05:33N 48°31' W 122°35'  
2016-Dec-05 00:16N 48°31' W 122°36'1 1.5
2016-Dec-04 23:33N 48°31' W 122°35'1 1.0
2016-Dec-04 22:33N 48°31' W 122°36'0 0.0
2016-Dec-04 21:33N 48°31' W 122°36'0 0.0
2016-Dec-04 20:33N 48°31' W 122°36'0 0.0
2016-Dec-04 19:33N 48°31' W 122°36'0 0.0
2016-Dec-04 17:33N 48°31' W 122°36'2 1.7
2016-Dec-04 16:33N 48°32' W 122°34'2 0.2
2016-Dec-04 08:33N 48°31' W 122°36'2 1.7
2016-Dec-04 07:33N 48°31' W 122°34'2 1.7
2016-Dec-04 06:33N 48°31' W 122°36'0 0.0
2016-Dec-04 05:33N 48°31' W 122°36'0 0.0
2016-Dec-04 04:33N 48°31' W 122°36'0 0.0
2016-Dec-04 03:33N 48°31' W 122°36'0 0.0
2016-Dec-04 02:33N 48°31' W 122°36'0 0.0
2016-Dec-04 01:33N 48°31' W 122°36'1 1.2
2016-Dec-04 00:33N 48°31' W 122°35'1 1.2
2016-Dec-03 23:33N 48°31' W 122°36'0 0.0
2016-Dec-03 22:33N 48°31' W 122°36'1 1.0
2016-Dec-03 21:33N 48°31' W 122°35'0 0.1
2016-Dec-03 20:33N 48°31' W 122°35'1 1.0
2016-Dec-03 19:33N 48°31' W 122°36'0 0.0
2016-Dec-03 18:33N 48°31' W 122°36'0 0.0
2016-Dec-03 17:33N 48°31' W 122°36'5 5.3
2016-Dec-03 16:33N 48°35' W 122°33'5 5.3
2016-Dec-03 15:33N 48°31' W 122°37'0 0.0
2016-Dec-02 11:33N 48°31' W 122°36'0 0.1
2016-Dec-02 07:33N 48°31' W 122°36'0 0.0
2016-Dec-02 06:33N 48°31' W 122°36'0 0.0
2016-Dec-02 05:33N 48°31' W 122°36'0 0.0
2016-Dec-02 04:33N 48°31' W 122°36'0 0.0
2016-Dec-02 03:33N 48°31' W 122°36'1 0.8
2016-Dec-02 02:33N 48°31' W 122°35'1 0.8
2016-Dec-02 01:33N 48°31' W 122°36'0 0.1
2016-Dec-02 00:33N 48°31' W 122°36'0 0.0
2016-Dec-01 23:33N 48°31' W 122°36'0 0.2
2016-Dec-01 22:33N 48°31' W 122°36'2 2.1
2016-Dec-01 21:33N 48°32' W 122°34'2 2.1
2016-Dec-01 20:33N 48°31' W 122°36'0 0.0
2016-Dec-01 19:33N 48°31' W 122°36'0 0.1
2016-Dec-01 18:33N 48°31' W 122°37'0 0.1
2016-Dec-01 17:33N 48°31' W 122°36'0 0.0
2016-Dec-01 16:33N 48°31' W 122°36'0 0.0
2016-Dec-01 15:33N 48°31' W 122°37'0 0.0
2016-Dec-01 03:33N 48°31' W 122°36'3110.4
2016-Dec-01 00:32N 48°01' W 122°22'1515.2
2016-Nov-30 23:34N 47°46' W 122°25'1312.6
2016-Nov-30 22:33N 47°34' W 122°21'6 5.8
2016-Nov-30 21:34N 47°34' W 122°29'5 0.4
2016-Nov-30 08:33N 47°34' W 122°21'7 7.0
2016-Nov-30 07:33N 47°33' W 122°32'7 7.3
2016-Nov-30 06:34N 47°34' W 122°21'4 3.5
2016-Nov-30 05:33N 47°35' W 122°26'5 4.6
2016-Nov-30 04:34N 47°33' W 122°32'7 7.4
2016-Nov-30 03:33N 47°34' W 122°21'0 0.0
2016-Nov-30 02:33N 47°34' W 122°21'0 0.0
2016-Nov-30 01:33N 47°34' W 122°21'0 0.0
2016-Nov-30 00:33N 47°34' W 122°21'3 3.5
2016-Nov-29 23:33N 47°37' W 122°22'0 0.1
2016-Nov-29 22:33N 47°37' W 122°22'5 5.2
2016-Nov-29 21:34N 47°34' W 122°28'5 5.0
2016-Nov-29 20:33N 47°34' W 122°21'6 5.9
2016-Nov-29 19:34N 47°33' W 122°30'1 1.3
2016-Nov-29 18:33N 47°33' W 122°31'3 3.5
2016-Nov-29 17:33N 47°35' W 122°27'4 4.2
2016-Nov-29 16:33N 47°34' W 122°21'0 0.0
2016-Nov-29 15:33N 47°34' W 122°21'0 0.0
2016-Nov-29 14:33N 47°34' W 122°21'0 0.0
2016-Nov-29 13:33N 47°34' W 122°21'0 0.0
2016-Nov-29 12:33N 47°34' W 122°21'0 0.0
2016-Nov-29 11:33N 47°34' W 122°21'0 0.0
2016-Nov-29 10:33N 47°34' W 122°21'0 0.0
2016-Nov-29 09:33N 47°34' W 122°21'0 0.0
2016-Nov-29 08:33N 47°34' W 122°21'0 0.0
2016-Nov-29 07:33N 47°34' W 122°21'0 0.0
2016-Nov-29 06:33N 47°34' W 122°21'0 0.0
2016-Nov-29 05:33N 47°34' W 122°21'0 0.0
2016-Nov-29 04:33N 47°34' W 122°21'0 0.0
2016-Nov-29 03:33N 47°34' W 122°21'0 0.0
2016-Nov-29 02:34N 47°34' W 122°21'0 0.0
2016-Nov-29 01:33N 47°34' W 122°21'0 0.0
2016-Nov-29 00:33N 47°34' W 122°21'4 4.0
2016-Nov-28 23:33N 47°38' W 122°24'9 9.3
2016-Nov-28 22:34N 47°47' W 122°27'4514.8
2016-Nov-28 19:33N 48°30' W 122°43'3 3.0
2016-Nov-28 18:33N 48°33' W 122°41'4 3.5
2016-Nov-28 17:33N 48°31' W 122°36'0 0.0
2016-Nov-28 02:33N 48°31' W 122°36'1 0.2
2016-Nov-27 20:33N 48°31' W 122°34'1 0.4
2016-Nov-27 17:12N 48°31' W 122°36'4 6.0
2016-Nov-27 16:33N 48°34' W 122°34'  

Dump ship's entire track history